sensor_id;sensor_type;location;lat;lon;timestamp;pressure;altitude;pressure_sealevel;temperature;humidity
3796;BME280;1913;50.660;7.834;2022-08-19T00:01:20;97014.22;;;15.22;100.00
3796;BME280;1913;50.660;7.834;2022-08-19T00:03:46;97017.81;;;15.16;100.00
3796;BME280;1913;50.660;7.834;2022-08-19T00:06:12;97018.16;;;15.19;100.00
3796;BME280;1913;50.660;7.834;2022-08-19T00:08:38;97026.56;;;15.16;100.00
3796;BME280;1913;50.660;7.834;2022-08-19T00:11:04;97027.34;;;15.17;100.00
3796;BME280;1913;50.660;7.834;2022-08-19T00:13:29;97029.19;;;15.16;100.00
3796;BME280;1913;50.660;7.834;2022-08-19T00:15:55;97032.31;;;15.13;100.00
3796;BME280;1913;50.660;7.834;2022-08-19T00:18:21;97027.69;;;15.20;100.00
3796;BME280;1913;50.660;7.834;2022-08-19T00:20:46;97023.91;;;15.16;100.00
3796;BME280;1913;50.660;7.834;2022-08-19T00:23:12;97031.41;;;15.07;100.00
3796;BME280;1913;50.660;7.834;2022-08-19T00:25:37;97030.13;;;15.10;100.00
3796;BME280;1913;50.660;7.834;2022-08-19T00:28:03;97027.88;;;15.02;100.00
3796;BME280;1913;50.660;7.834;2022-08-19T00:30:29;97028.66;;;15.02;100.00
3796;BME280;1913;50.660;7.834;2022-08-19T00:32:55;97029.72;;;15.01;100.00
3796;BME280;1913;50.660;7.834;2022-08-19T00:35:21;97031.66;;;15.06;100.00
3796;BME280;1913;50.660;7.834;2022-08-19T00:37:48;97028.66;;;15.02;100.00
3796;BME280;1913;50.660;7.834;2022-08-19T00:40:14;97014.16;;;15.05;100.00
3796;BME280;1913;50.660;7.834;2022-08-19T00:42:41;97017.16;;;15.08;100.00
3796;BME280;1913;50.660;7.834;2022-08-19T00:45:19;97017.38;;;15.07;100.00
3796;BME280;1913;50.660;7.834;2022-08-19T00:47:45;97018.41;;;15.06;100.00
3796;BME280;1913;50.660;7.834;2022-08-19T00:50:13;97011.53;;;15.05;100.00
3796;BME280;1913;50.660;7.834;2022-08-19T00:52:45;96999.09;;;15.05;100.00
3796;BME280;1913;50.660;7.834;2022-08-19T00:55:20;97004.59;;;15.16;100.00
3796;BME280;1913;50.660;7.834;2022-08-19T00:57:51;97006.31;;;15.10;100.00
3796;BME280;1913;50.660;7.834;2022-08-19T01:00:20;96994.25;;;15.02;100.00
3796;BME280;1913;50.660;7.834;2022-08-19T01:02:47;97001.16;;;15.03;100.00
3796;BME280;1913;50.660;7.834;2022-08-19T01:05:19;97008.66;;;14.95;100.00
3796;BME280;1913;50.660;7.834;2022-08-19T01:07:47;97010.97;;;14.91;100.00
3796;BME280;1913;50.660;7.834;2022-08-19T01:10:16;97017.16;;;14.97;100.00
3796;BME280;1913;50.660;7.834;2022-08-19T01:12:44;97012.44;;;14.99;100.00
3796;BME280;1913;50.660;7.834;2022-08-19T01:15:12;97005.66;;;15.03;100.00
3796;BME280;1913;50.660;7.834;2022-08-19T01:17:40;97006.22;;;15.05;100.00
3796;BME280;1913;50.660;7.834;2022-08-19T01:20:12;97006.38;;;14.98;100.00
3796;BME280;1913;50.660;7.834;2022-08-19T01:22:44;97004.88;;;14.91;100.00
3796;BME280;1913;50.660;7.834;2022-08-19T01:25:12;97003.72;;;14.98;100.00
3796;BME280;1913;50.660;7.834;2022-08-19T01:27:45;97002.59;;;14.94;100.00
3796;BME280;1913;50.660;7.834;2022-08-19T01:30:16;97003.50;;;14.88;100.00
3796;BME280;1913;50.660;7.834;2022-08-19T01:32:42;96992.56;;;14.96;100.00
3796;BME280;1913;50.660;7.834;2022-08-19T01:35:10;96991.88;;;14.89;100.00
3796;BME280;1913;50.660;7.834;2022-08-19T01:37:54;96990.41;;;14.81;100.00
3796;BME280;1913;50.660;7.834;2022-08-19T01:40:22;96994.66;;;14.82;100.00
3796;BME280;1913;50.660;7.834;2022-08-19T01:42:49;96984.53;;;14.79;100.00
3796;BME280;1913;50.660;7.834;2022-08-19T01:45:15;96997.28;;;14.82;100.00
3796;BME280;1913;50.660;7.834;2022-08-19T01:47:41;96995.16;;;14.68;100.00
3796;BME280;1913;50.660;7.834;2022-08-19T01:50:08;96992.97;;;14.76;100.00
3796;BME280;1913;50.660;7.834;2022-08-19T01:52:39;96994.69;;;14.71;100.00
3796;BME280;1913;50.660;7.834;2022-08-19T01:55:07;96992.38;;;14.74;100.00
3796;BME280;1913;50.660;7.834;2022-08-19T01:57:33;96979.50;;;14.78;100.00
3796;BME280;1913;50.660;7.834;2022-08-19T01:59:59;96974.19;;;14.78;100.00
3796;BME280;1913;50.660;7.834;2022-08-19T02:02:25;96976.03;;;14.77;100.00
3796;BME280;1913;50.660;7.834;2022-08-19T02:04:51;96973.16;;;14.79;100.00
3796;BME280;1913;50.660;7.834;2022-08-19T02:07:21;96974.66;;;14.75;100.00
3796;BME280;1913;50.660;7.834;2022-08-19T02:09:48;96977.22;;;14.70;100.00
3796;BME280;1913;50.660;7.834;2022-08-19T02:12:14;96962.59;;;14.67;100.00
3796;BME280;1913;50.660;7.834;2022-08-19T02:14:39;96960.09;;;14.60;100.00
3796;BME280;1913;50.660;7.834;2022-08-19T02:17:05;96959.75;;;14.57;100.00
3796;BME280;1913;50.660;7.834;2022-08-19T02:19:30;96966.75;;;14.51;100.00
3796;BME280;1913;50.660;7.834;2022-08-19T02:21:58;96974.94;;;14.38;100.00
3796;BME280;1913;50.660;7.834;2022-08-19T02:24:23;96972.16;;;14.33;100.00
3796;BME280;1913;50.660;7.834;2022-08-19T02:26:49;96975.16;;;14.36;100.00
3796;BME280;1913;50.660;7.834;2022-08-19T02:29:14;96985.38;;;14.45;100.00
3796;BME280;1913;50.660;7.834;2022-08-19T02:31:40;96980.31;;;14.43;100.00
3796;BME280;1913;50.660;7.834;2022-08-19T02:34:05;96976.19;;;14.35;100.00
3796;BME280;1913;50.660;7.834;2022-08-19T02:36:31;96981.13;;;14.32;100.00
3796;BME280;1913;50.660;7.834;2022-08-19T02:38:56;96972.53;;;14.25;100.00
3796;BME280;1913;50.660;7.834;2022-08-19T02:41:26;96971.13;;;14.22;100.00
3796;BME280;1913;50.660;7.834;2022-08-19T02:43:52;96975.19;;;14.13;100.00
3796;BME280;1913;50.660;7.834;2022-08-19T02:46:22;96965.28;;;14.08;100.00
3796;BME280;1913;50.660;7.834;2022-08-19T02:48:52;96967.91;;;14.08;100.00
3796;BME280;1913;50.660;7.834;2022-08-19T02:51:20;96977.78;;;14.01;100.00
3796;BME280;1913;50.660;7.834;2022-08-19T02:53:46;96975.16;;;14.01;100.00
3796;BME280;1913;50.660;7.834;2022-08-19T02:56:12;96985.97;;;14.00;100.00
3796;BME280;1913;50.660;7.834;2022-08-19T02:58:37;96984.81;;;14.07;100.00
3796;BME280;1913;50.660;7.834;2022-08-19T03:01:03;96983.56;;;14.10;100.00
3796;BME280;1913;50.660;7.834;2022-08-19T03:03:28;96982.16;;;14.07;100.00
3796;BME280;1913;50.660;7.834;2022-08-19T03:06:13;96981.03;;;14.03;100.00
3796;BME280;1913;50.660;7.834;2022-08-19T03:08:40;96983.31;;;14.00;100.00
3796;BME280;1913;50.660;7.834;2022-08-19T03:11:06;96988.16;;;13.91;100.00
3796;BME280;1913;50.660;7.834;2022-08-19T03:13:37;96991.81;;;13.90;100.00
3796;BME280;1913;50.660;7.834;2022-08-19T03:16:04;96989.16;;;13.90;100.00
3796;BME280;1913;50.660;7.834;2022-08-19T03:18:30;96993.09;;;13.87;100.00
3796;BME280;1913;50.660;7.834;2022-08-19T03:20:55;97000.75;;;13.77;100.00
3796;BME280;1913;50.660;7.834;2022-08-19T03:23:22;96999.00;;;13.71;100.00
3796;BME280;1913;50.660;7.834;2022-08-19T03:25:49;97000.25;;;13.69;100.00
3796;BME280;1913;50.660;7.834;2022-08-19T03:28:15;96999.47;;;13.68;100.00
3796;BME280;1913;50.660;7.834;2022-08-19T03:30:42;97000.59;;;13.60;100.00
3796;BME280;1913;50.660;7.834;2022-08-19T03:33:19;96997.59;;;13.57;100.00
3796;BME280;1913;50.660;7.834;2022-08-19T03:35:45;97002.53;;;13.53;100.00
3796;BME280;1913;50.660;7.834;2022-08-19T03:38:10;97002.28;;;13.55;100.00
3796;BME280;1913;50.660;7.834;2022-08-19T03:40:36;97009.75;;;13.58;100.00
3796;BME280;1913;50.660;7.834;2022-08-19T03:43:02;97003.94;;;13.68;100.00
3796;BME280;1913;50.660;7.834;2022-08-19T03:45:27;97004.75;;;13.68;100.00
3796;BME280;1913;50.660;7.834;2022-08-19T03:47:53;97005.91;;;13.72;100.00
3796;BME280;1913;50.660;7.834;2022-08-19T03:50:18;97002.25;;;13.73;100.00
3796;BME280;1913;50.660;7.834;2022-08-19T03:52:51;96995.91;;;13.62;100.00
3796;BME280;1913;50.660;7.834;2022-08-19T03:55:17;96998.41;;;13.57;100.00
3796;BME280;1913;50.660;7.834;2022-08-19T03:57:43;96995.94;;;13.44;100.00
3796;BME280;1913;50.660;7.834;2022-08-19T04:00:10;97000.66;;;13.42;100.00
3796;BME280;1913;50.660;7.834;2022-08-19T04:02:36;97016.97;;;13.51;100.00
3796;BME280;1913;50.660;7.834;2022-08-19T04:05:01;97014.78;;;13.48;100.00
3796;BME280;1913;50.660;7.834;2022-08-19T04:07:27;97018.22;;;13.48;100.00
3796;BME280;1913;50.660;7.834;2022-08-19T04:09:53;97016.97;;;13.51;100.00
3796;BME280;1913;50.660;7.834;2022-08-19T04:12:18;97024.31;;;13.49;100.00
3796;BME280;1913;50.660;7.834;2022-08-19T04:14:45;97012.94;;;13.48;100.00
3796;BME280;1913;50.660;7.834;2022-08-19T04:17:11;97017.75;;;13.39;100.00
3796;BME280;1913;50.660;7.834;2022-08-19T04:19:39;97017.63;;;13.34;100.00
3796;BME280;1913;50.660;7.834;2022-08-19T04:22:05;97025.53;;;13.34;100.00
3796;BME280;1913;50.660;7.834;2022-08-19T04:24:32;97023.91;;;13.33;100.00
3796;BME280;1913;50.660;7.834;2022-08-19T04:27:01;97022.91;;;13.34;100.00
3796;BME280;1913;50.660;7.834;2022-08-19T04:29:28;97029.19;;;13.33;100.00
3796;BME280;1913;50.660;7.834;2022-08-19T04:31:56;97025.25;;;13.24;100.00
3796;BME280;1913;50.660;7.834;2022-08-19T04:34:23;97026.88;;;13.25;100.00
3796;BME280;1913;50.660;7.834;2022-08-19T04:36:51;97025.53;;;13.34;100.00
3796;BME280;1913;50.660;7.834;2022-08-19T04:39:19;97028.75;;;13.36;100.00
3796;BME280;1913;50.660;7.834;2022-08-19T04:41:45;97030.94;;;13.39;100.00
3796;BME280;1913;50.660;7.834;2022-08-19T04:44:31;97034.97;;;13.42;100.00
3796;BME280;1913;50.660;7.834;2022-08-19T04:46:57;97041.72;;;13.38;100.00
3796;BME280;1913;50.660;7.834;2022-08-19T04:49:23;97044.63;;;13.48;100.00
3796;BME280;1913;50.660;7.834;2022-08-19T04:51:50;97042.56;;;13.50;100.00
3796;BME280;1913;50.660;7.834;2022-08-19T04:54:21;97047.16;;;13.55;100.00
3796;BME280;1913;50.660;7.834;2022-08-19T04:56:48;97048.72;;;13.62;100.00
3796;BME280;1913;50.660;7.834;2022-08-19T04:59:15;97041.03;;;13.73;100.00
3796;BME280;1913;50.660;7.834;2022-08-19T05:01:42;97040.47;;;13.71;100.00
3796;BME280;1913;50.660;7.834;2022-08-19T05:04:08;97046.00;;;13.81;100.00
3796;BME280;1913;50.660;7.834;2022-08-19T05:06:34;97045.19;;;13.80;100.00
3796;BME280;1913;50.660;7.834;2022-08-19T05:09:02;97049.09;;;13.89;100.00
3796;BME280;1913;50.660;7.834;2022-08-19T05:11:31;97043.88;;;14.13;100.00
3796;BME280;1913;50.660;7.834;2022-08-19T05:13:57;97041.00;;;14.26;100.00
3796;BME280;1913;50.660;7.834;2022-08-19T05:16:24;97039.72;;;14.41;100.00
3796;BME280;1913;50.660;7.834;2022-08-19T05:18:50;97049.78;;;14.50;100.00
3796;BME280;1913;50.660;7.834;2022-08-19T05:21:35;97046.31;;;14.61;100.00
3796;BME280;1913;50.660;7.834;2022-08-19T05:24:20;97044.34;;;14.69;100.00
3796;BME280;1913;50.660;7.834;2022-08-19T05:26:48;97042.53;;;14.69;100.00
3796;BME280;1913;50.660;7.834;2022-08-19T05:29:16;97052.63;;;14.84;100.00
3796;BME280;1913;50.660;7.834;2022-08-19T05:31:42;97045.59;;;14.90;100.00
3796;BME280;1913;50.660;7.834;2022-08-19T05:34:08;97045.59;;;15.01;100.00
3796;BME280;1913;50.660;7.834;2022-08-19T05:36:44;97044.28;;;15.04;100.00
3796;BME280;1913;50.660;7.834;2022-08-19T05:39:16;97039.63;;;14.82;100.00
3796;BME280;1913;50.660;7.834;2022-08-19T05:41:47;97042.41;;;14.88;100.00
3796;BME280;1913;50.660;7.834;2022-08-19T05:44:13;97046.72;;;14.94;100.00
3796;BME280;1913;50.660;7.834;2022-08-19T05:46:39;97042.34;;;14.99;100.00
3796;BME280;1913;50.660;7.834;2022-08-19T05:49:06;97043.31;;;15.22;100.00
3796;BME280;1913;50.660;7.834;2022-08-19T05:51:33;97037.44;;;15.31;100.00
3796;BME280;1913;50.660;7.834;2022-08-19T05:54:00;97038.00;;;15.33;100.00
3796;BME280;1913;50.660;7.834;2022-08-19T05:56:26;97034.38;;;15.51;100.00
3796;BME280;1913;50.660;7.834;2022-08-19T05:58:52;97032.59;;;15.57;100.00
3796;BME280;1913;50.660;7.834;2022-08-19T06:01:19;97034.03;;;15.76;100.00
3796;BME280;1913;50.660;7.834;2022-08-19T06:03:45;97029.97;;;16.02;100.00
3796;BME280;1913;50.660;7.834;2022-08-19T06:06:12;97036.72;;;16.27;100.00
3796;BME280;1913;50.660;7.834;2022-08-19T06:08:38;97030.97;;;16.52;100.00
3796;BME280;1913;50.660;7.834;2022-08-19T06:11:17;97024.09;;;16.73;100.00
3796;BME280;1913;50.660;7.834;2022-08-19T06:13:44;97028.94;;;16.76;100.00
3796;BME280;1913;50.660;7.834;2022-08-19T06:16:13;97030.06;;;17.02;100.00
3796;BME280;1913;50.660;7.834;2022-08-19T06:18:44;97022.66;;;17.04;100.00
3796;BME280;1913;50.660;7.834;2022-08-19T06:21:10;97033.09;;;17.33;100.00
3796;BME280;1913;50.660;7.834;2022-08-19T06:23:35;97039.66;;;17.52;100.00
3796;BME280;1913;50.660;7.834;2022-08-19T06:26:01;97044.41;;;17.50;100.00
3796;BME280;1913;50.660;7.834;2022-08-19T06:28:26;97042.44;;;17.89;100.00
3796;BME280;1913;50.660;7.834;2022-08-19T06:30:52;97040.53;;;18.17;100.00
3796;BME280;1913;50.660;7.834;2022-08-19T06:33:17;97042.97;;;18.24;100.00
3796;BME280;1913;50.660;7.834;2022-08-19T06:35:43;97041.59;;;18.16;100.00
3796;BME280;1913;50.660;7.834;2022-08-19T06:38:08;97053.78;;;18.12;100.00
3796;BME280;1913;50.660;7.834;2022-08-19T06:40:34;97061.22;;;18.10;100.00
3796;BME280;1913;50.660;7.834;2022-08-19T06:43:00;97063.16;;;18.19;100.00
3796;BME280;1913;50.660;7.834;2022-08-19T06:45:27;97061.59;;;18.24;100.00
3796;BME280;1913;50.660;7.834;2022-08-19T06:47:53;97067.75;;;18.29;100.00
3796;BME280;1913;50.660;7.834;2022-08-19T06:50:22;97077.00;;;18.59;100.00
3796;BME280;1913;50.660;7.834;2022-08-19T06:52:48;97072.94;;;18.88;100.00
3796;BME280;1913;50.660;7.834;2022-08-19T06:55:14;97077.25;;;18.95;100.00
3796;BME280;1913;50.660;7.834;2022-08-19T06:57:41;97089.13;;;19.29;100.00
3796;BME280;1913;50.660;7.834;2022-08-19T07:00:08;97093.50;;;19.56;100.00
3796;BME280;1913;50.660;7.834;2022-08-19T07:02:38;97094.13;;;19.78;100.00
3796;BME280;1913;50.660;7.834;2022-08-19T07:05:04;97084.03;;;19.96;100.00
3796;BME280;1913;50.660;7.834;2022-08-19T07:07:30;97090.16;;;19.96;100.00
3796;BME280;1913;50.660;7.834;2022-08-19T07:09:56;97091.75;;;20.13;100.00
3796;BME280;1913;50.660;7.834;2022-08-19T07:12:21;97092.03;;;20.37;100.00
3796;BME280;1913;50.660;7.834;2022-08-19T07:14:47;97098.19;;;20.58;100.00
3796;BME280;1913;50.660;7.834;2022-08-19T07:17:14;97108.03;;;20.77;100.00
3796;BME280;1913;50.660;7.834;2022-08-19T07:19:40;97115.22;;;21.02;100.00
3796;BME280;1913;50.660;7.834;2022-08-19T07:22:08;97110.13;;;21.11;100.00
3796;BME280;1913;50.660;7.834;2022-08-19T07:24:35;97116.03;;;21.03;100.00
3796;BME280;1913;50.660;7.834;2022-08-19T07:27:03;97114.00;;;21.60;100.00
3796;BME280;1913;50.660;7.834;2022-08-19T07:29:31;97116.22;;;21.87;100.00
3796;BME280;1913;50.660;7.834;2022-08-19T07:31:59;97119.88;;;22.06;100.00
3796;BME280;1913;50.660;7.834;2022-08-19T07:34:26;97119.19;;;21.85;100.00
3796;BME280;1913;50.660;7.834;2022-08-19T07:36:53;97117.00;;;21.92;100.00
3796;BME280;1913;50.660;7.834;2022-08-19T07:39:22;97126.44;;;21.80;100.00
3796;BME280;1913;50.660;7.834;2022-08-19T07:41:48;97132.41;;;22.11;100.00
3796;BME280;1913;50.660;7.834;2022-08-19T07:44:16;97121.31;;;22.33;100.00
3796;BME280;1913;50.660;7.834;2022-08-19T07:46:44;97123.91;;;22.77;100.00
3796;BME280;1913;50.660;7.834;2022-08-19T07:49:11;97128.16;;;23.07;100.00
3796;BME280;1913;50.660;7.834;2022-08-19T07:51:53;97117.16;;;23.57;100.00
3796;BME280;1913;50.660;7.834;2022-08-19T07:54:20;97124.19;;;23.96;100.00
3796;BME280;1913;50.660;7.834;2022-08-19T07:56:47;97124.53;;;23.89;100.00
3796;BME280;1913;50.660;7.834;2022-08-19T07:59:12;97124.81;;;24.25;100.00
3796;BME280;1913;50.660;7.834;2022-08-19T08:01:38;97121.13;;;24.87;100.00
3796;BME280;1913;50.660;7.834;2022-08-19T08:04:06;97119.09;;;25.11;100.00
3796;BME280;1913;50.660;7.834;2022-08-19T08:06:52;97111.13;;;25.06;100.00
3796;BME280;1913;50.660;7.834;2022-08-19T08:09:38;97112.25;;;25.32;100.00
3796;BME280;1913;50.660;7.834;2022-08-19T08:12:10;97119.09;;;25.66;100.00
3796;BME280;1913;50.660;7.834;2022-08-19T08:14:49;97115.69;;;26.24;100.00
3796;BME280;1913;50.660;7.834;2022-08-19T08:17:16;97110.28;;;26.24;100.00
3796;BME280;1913;50.660;7.834;2022-08-19T08:19:43;97109.09;;;26.76;98.03
3796;BME280;1913;50.660;7.834;2022-08-19T08:22:09;97113.19;;;27.44;93.85
3796;BME280;1913;50.660;7.834;2022-08-19T08:24:55;97107.28;;;28.08;86.62
3796;BME280;1913;50.660;7.834;2022-08-19T08:27:24;97104.91;;;28.32;84.51
3796;BME280;1913;50.660;7.834;2022-08-19T08:29:49;97111.59;;;28.44;81.04
3796;BME280;1913;50.660;7.834;2022-08-19T08:32:15;97106.47;;;28.33;78.54
3796;BME280;1913;50.660;7.834;2022-08-19T08:34:40;97105.19;;;27.87;81.21
3796;BME280;1913;50.660;7.834;2022-08-19T08:37:06;97112.97;;;27.32;90.20
3796;BME280;1913;50.660;7.834;2022-08-19T08:39:31;97113.53;;;27.60;84.03
3796;BME280;1913;50.660;7.834;2022-08-19T08:42:08;97107.47;;;27.37;86.09
3796;BME280;1913;50.660;7.834;2022-08-19T08:44:52;97108.94;;;27.52;87.53
3796;BME280;1913;50.660;7.834;2022-08-19T08:47:21;97104.09;;;27.00;88.86
3796;BME280;1913;50.660;7.834;2022-08-19T08:49:52;97108.72;;;27.31;86.62
3796;BME280;1913;50.660;7.834;2022-08-19T08:55:00;97101.66;;;27.12;84.60
3796;BME280;1913;50.660;7.834;2022-08-19T09:00:03;97096.72;;;27.14;84.48
3796;BME280;1913;50.660;7.834;2022-08-19T09:02:31;97098.78;;;27.57;79.85
3796;BME280;1913;50.660;7.834;2022-08-19T09:04:56;97088.84;;;28.10;74.77
3796;BME280;1913;50.660;7.834;2022-08-19T09:07:42;97108.25;;;28.38;68.59
3796;BME280;1913;50.660;7.834;2022-08-19T09:10:34;97100.22;;;28.76;62.16
3796;BME280;1913;50.660;7.834;2022-08-19T09:15:44;97095.66;;;29.45;53.53
3796;BME280;1913;50.660;7.834;2022-08-19T09:18:12;97100.13;;;30.00;50.88
3796;BME280;1913;50.660;7.834;2022-08-19T09:20:37;97101.09;;;29.95;46.38
3796;BME280;1913;50.660;7.834;2022-08-19T09:23:03;97097.97;;;30.47;45.93
3796;BME280;1913;50.660;7.834;2022-08-19T09:25:28;97095.72;;;30.49;42.25
3796;BME280;1913;50.660;7.834;2022-08-19T09:27:56;97102.00;;;30.41;42.94
3796;BME280;1913;50.660;7.834;2022-08-19T09:30:27;97103.28;;;30.77;39.91
3796;BME280;1913;50.660;7.834;2022-08-19T09:32:54;97098.78;;;31.06;38.75
3796;BME280;1913;50.660;7.834;2022-08-19T09:35:26;97101.34;;;31.35;39.38
3796;BME280;1913;50.660;7.834;2022-08-19T09:37:54;97091.34;;;31.64;38.54
3796;BME280;1913;50.660;7.834;2022-08-19T09:40:20;97098.09;;;31.94;37.87
3796;BME280;1913;50.660;7.834;2022-08-19T09:42:46;97093.63;;;31.62;36.52
3796;BME280;1913;50.660;7.834;2022-08-19T09:45:14;97092.69;;;31.09;38.17
3796;BME280;1913;50.660;7.834;2022-08-19T09:47:40;97090.66;;;31.30;39.63
3796;BME280;1913;50.660;7.834;2022-08-19T09:50:07;97092.59;;;30.60;40.71
3796;BME280;1913;50.660;7.834;2022-08-19T09:52:33;97091.94;;;31.33;38.04
3796;BME280;1913;50.660;7.834;2022-08-19T09:55:00;97096.06;;;31.06;39.03
3796;BME280;1913;50.660;7.834;2022-08-19T09:57:25;97088.56;;;32.01;37.68
3796;BME280;1913;50.660;7.834;2022-08-19T09:59:50;97097.22;;;32.18;35.79
3796;BME280;1913;50.660;7.834;2022-08-19T10:02:16;97099.06;;;32.71;36.01
3796;BME280;1913;50.660;7.834;2022-08-19T10:04:41;97094.69;;;32.10;37.78
3796;BME280;1913;50.660;7.834;2022-08-19T10:07:25;97094.63;;;32.50;37.34
3796;BME280;1913;50.660;7.834;2022-08-19T10:09:51;97088.41;;;31.69;37.00
3796;BME280;1913;50.660;7.834;2022-08-19T10:12:16;97094.84;;;31.89;35.97
3796;BME280;1913;50.660;7.834;2022-08-19T10:14:41;97093.06;;;31.44;37.41
3796;BME280;1913;50.660;7.834;2022-08-19T10:17:07;97081.88;;;31.33;37.08
3796;BME280;1913;50.660;7.834;2022-08-19T10:19:33;97093.38;;;31.91;37.22
3796;BME280;1913;50.660;7.834;2022-08-19T10:22:05;97091.00;;;32.18;36.46
3796;BME280;1913;50.660;7.834;2022-08-19T10:24:32;97084.94;;;31.32;36.46
3796;BME280;1913;50.660;7.834;2022-08-19T10:26:59;97092.00;;;30.87;36.96
3796;BME280;1913;50.660;7.834;2022-08-19T10:29:24;97084.53;;;30.84;37.84
3796;BME280;1913;50.660;7.834;2022-08-19T10:31:50;97077.00;;;31.63;36.93
3796;BME280;1913;50.660;7.834;2022-08-19T10:34:15;97077.59;;;31.97;37.18
3796;BME280;1913;50.660;7.834;2022-08-19T10:36:41;97071.94;;;32.02;36.30
3796;BME280;1913;50.660;7.834;2022-08-19T10:39:08;97066.19;;;31.79;35.92
3796;BME280;1913;50.660;7.834;2022-08-19T10:41:36;97070.84;;;32.19;34.91
3796;BME280;1913;50.660;7.834;2022-08-19T10:44:05;97069.28;;;32.34;35.29
3796;BME280;1913;50.660;7.834;2022-08-19T10:46:32;97072.69;;;32.43;35.86
3796;BME280;1913;50.660;7.834;2022-08-19T10:49:02;97074.31;;;33.39;33.86
3796;BME280;1913;50.660;7.834;2022-08-19T10:51:29;97066.66;;;32.22;34.83
3796;BME280;1913;50.660;7.834;2022-08-19T10:54:13;97057.91;;;32.00;35.66
3796;BME280;1913;50.660;7.834;2022-08-19T10:56:38;97065.47;;;32.35;35.12
3796;BME280;1913;50.660;7.834;2022-08-19T10:59:21;97068.91;;;32.48;34.82
3796;BME280;1913;50.660;7.834;2022-08-19T11:01:48;97058.63;;;33.01;32.84
3796;BME280;1913;50.660;7.834;2022-08-19T11:04:14;97067.38;;;31.54;35.75
3796;BME280;1913;50.660;7.834;2022-08-19T11:06:47;97069.31;;;31.29;36.67
3796;BME280;1913;50.660;7.834;2022-08-19T11:09:22;97066.13;;;31.51;36.02
3796;BME280;1913;50.660;7.834;2022-08-19T11:11:51;97057.53;;;31.61;35.85
3796;BME280;1913;50.660;7.834;2022-08-19T11:14:19;97056.91;;;31.92;35.99
3796;BME280;1913;50.660;7.834;2022-08-19T11:16:47;97059.13;;;32.59;34.42
3796;BME280;1913;50.660;7.834;2022-08-19T11:19:13;97053.94;;;32.26;34.06
3796;BME280;1913;50.660;7.834;2022-08-19T11:21:43;97051.81;;;32.19;34.19
3796;BME280;1913;50.660;7.834;2022-08-19T11:24:21;97054.94;;;32.93;31.63
3796;BME280;1913;50.660;7.834;2022-08-19T11:26:49;97064.34;;;32.96;31.18
3796;BME280;1913;50.660;7.834;2022-08-19T11:29:16;97064.06;;;32.85;30.88
3796;BME280;1913;50.660;7.834;2022-08-19T11:31:45;97057.53;;;32.30;32.24
3796;BME280;1913;50.660;7.834;2022-08-19T11:34:14;97054.56;;;32.79;32.12
3796;BME280;1913;50.660;7.834;2022-08-19T11:36:43;97057.94;;;32.88;31.87
3796;BME280;1913;50.660;7.834;2022-08-19T11:39:11;97043.22;;;32.45;31.80
3796;BME280;1913;50.660;7.834;2022-08-19T11:41:36;97053.50;;;32.52;31.62
3796;BME280;1913;50.660;7.834;2022-08-19T11:44:02;97041.50;;;32.53;32.64
3796;BME280;1913;50.660;7.834;2022-08-19T11:46:30;97041.81;;;33.62;31.26
3796;BME280;1913;50.660;7.834;2022-08-19T11:48:56;97038.78;;;33.67;30.63
3796;BME280;1913;50.660;7.834;2022-08-19T11:51:23;97043.38;;;34.41;29.81
3796;BME280;1913;50.660;7.834;2022-08-19T11:53:50;97046.50;;;32.82;30.95
3796;BME280;1913;50.660;7.834;2022-08-19T11:56:17;97053.00;;;32.94;30.99
3796;BME280;1913;50.660;7.834;2022-08-19T11:58:44;97042.22;;;32.97;30.23
3796;BME280;1913;50.660;7.834;2022-08-19T12:01:11;97045.81;;;32.70;32.16
3796;BME280;1913;50.660;7.834;2022-08-19T12:03:37;97049.13;;;33.77;30.44
3796;BME280;1913;50.660;7.834;2022-08-19T12:06:18;97045.09;;;34.29;29.61
3796;BME280;1913;50.660;7.834;2022-08-19T12:08:44;97048.22;;;34.28;30.32
3796;BME280;1913;50.660;7.834;2022-08-19T12:11:11;97053.06;;;33.80;30.19
3796;BME280;1913;50.660;7.834;2022-08-19T12:13:37;97051.91;;;32.51;31.75
3796;BME280;1913;50.660;7.834;2022-08-19T12:16:30;97052.41;;;33.16;31.40
3796;BME280;1913;50.660;7.834;2022-08-19T12:18:57;97057.78;;;33.12;30.96
3796;BME280;1913;50.660;7.834;2022-08-19T12:21:26;97051.50;;;32.49;30.31
3796;BME280;1913;50.660;7.834;2022-08-19T12:23:55;97049.19;;;31.17;30.88
3796;BME280;1913;50.660;7.834;2022-08-19T12:26:21;97052.56;;;31.51;31.08
3796;BME280;1913;50.660;7.834;2022-08-19T12:28:47;97043.41;;;31.56;32.33
3796;BME280;1913;50.660;7.834;2022-08-19T12:31:14;97041.69;;;30.90;33.61
3796;BME280;1913;50.660;7.834;2022-08-19T12:33:41;97044.06;;;31.16;32.67
3796;BME280;1913;50.660;7.834;2022-08-19T12:36:09;97041.63;;;31.76;32.59
3796;BME280;1913;50.660;7.834;2022-08-19T12:38:38;97035.03;;;31.36;32.13
3796;BME280;1913;50.660;7.834;2022-08-19T12:41:05;97033.44;;;31.23;31.34
3796;BME280;1913;50.660;7.834;2022-08-19T12:43:32;97026.81;;;31.73;30.41
3796;BME280;1913;50.660;7.834;2022-08-19T12:45:57;97031.19;;;31.50;32.21
3796;BME280;1913;50.660;7.834;2022-08-19T12:48:23;97039.22;;;30.97;32.73
3796;BME280;1913;50.660;7.834;2022-08-19T12:50:48;97028.38;;;29.85;34.94
3796;BME280;1913;50.660;7.834;2022-08-19T12:53:14;97015.53;;;29.94;34.99
3796;BME280;1913;50.660;7.834;2022-08-19T12:55:40;97020.16;;;29.94;34.82
3796;BME280;1913;50.660;7.834;2022-08-19T12:58:06;97012.44;;;30.38;34.13
3796;BME280;1913;50.660;7.834;2022-08-19T13:00:31;97014.91;;;31.00;32.16
3796;BME280;1913;50.660;7.834;2022-08-19T13:02:58;97013.34;;;30.99;32.11
3796;BME280;1913;50.660;7.834;2022-08-19T13:05:27;97014.97;;;32.06;30.37
3796;BME280;1913;50.660;7.834;2022-08-19T13:07:54;97015.84;;;32.10;30.34
3796;BME280;1913;50.660;7.834;2022-08-19T13:10:25;97020.22;;;31.21;32.56
3796;BME280;1913;50.660;7.834;2022-08-19T13:12:53;97017.13;;;30.62;34.56
3796;BME280;1913;50.660;7.834;2022-08-19T13:15:20;97009.44;;;30.64;34.66
3796;BME280;1913;50.660;7.834;2022-08-19T13:17:47;97006.31;;;31.35;32.10
3796;BME280;1913;50.660;7.834;2022-08-19T13:20:15;97015.69;;;32.18;31.84
3796;BME280;1913;50.660;7.834;2022-08-19T13:22:41;97005.28;;;31.40;31.40
3796;BME280;1913;50.660;7.834;2022-08-19T13:25:08;97014.75;;;30.72;32.46
3796;BME280;1913;50.660;7.834;2022-08-19T13:27:34;97015.03;;;30.13;34.18